createdAt,value
2023-01-07T00:01:39.955Z,99.90
2023-01-07T00:04:08.440Z,99.90
2023-01-07T00:06:37.080Z,99.90
2023-01-07T00:09:05.995Z,99.90
2023-01-07T00:11:38.806Z,99.90
2023-01-07T00:14:07.507Z,99.90
2023-01-07T00:16:35.751Z,99.90
2023-01-07T00:19:04.464Z,99.90
2023-01-07T00:21:31.851Z,99.90
2023-01-07T00:24:01.001Z,99.90
2023-01-07T00:26:30.886Z,99.90
2023-01-07T00:28:57.906Z,99.90
2023-01-07T05:31:00.119Z,99.90
2023-01-07T05:33:26.840Z,99.90
2023-01-07T05:35:53.471Z,99.90
2023-01-07T05:38:20.339Z,99.90
2023-01-07T05:40:49.869Z,99.90
2023-01-07T05:43:17.168Z,99.90
2023-01-07T05:45:45.821Z,99.90
2023-01-07T05:48:13.800Z,99.90
2023-01-07T05:50:40.661Z,99.90
2023-01-07T05:53:07.709Z,99.90
2023-01-07T05:55:36.701Z,99.90
2023-01-07T05:58:03.449Z,99.90
2023-01-07T06:00:30.501Z,99.90
2023-01-07T06:02:57.119Z,99.90
2023-01-07T06:05:23.809Z,99.90
2023-01-07T06:07:50.446Z,99.90
2023-01-07T06:10:17.085Z,99.90
2023-01-07T06:12:43.851Z,99.90
2023-01-07T06:15:11.116Z,99.90
2023-01-07T06:17:37.955Z,99.90
2023-01-07T06:20:05.972Z,99.90
2023-01-07T06:22:32.639Z,99.90
2023-01-07T06:24:59.303Z,99.90
2023-01-07T06:27:25.914Z,99.90
2023-01-07T06:29:52.524Z,99.90
2023-01-07T06:32:19.165Z,99.90
2023-01-07T06:34:45.827Z,99.90
2023-01-07T06:37:14.731Z,99.90
2023-01-07T06:39:41.345Z,99.90
2023-01-07T06:42:07.945Z,99.90
2023-01-07T06:44:34.910Z,99.90
2023-01-07T06:47:01.619Z,99.90
2023-01-07T06:49:28.293Z,99.90
2023-01-07T06:51:54.994Z,99.90
2023-01-07T06:54:21.711Z,99.90
2023-01-07T06:56:48.479Z,99.90
2023-01-07T06:59:15.187Z,99.90
2023-01-07T07:01:41.925Z,99.90
2023-01-07T07:04:08.667Z,99.90
2023-01-07T07:06:35.304Z,99.90
2023-01-07T07:09:02.090Z,99.90
2023-01-07T07:11:28.809Z,99.90
2023-01-07T07:13:55.687Z,99.90
2023-01-07T07:16:23.939Z,99.90
2023-01-07T07:18:50.653Z,99.90
2023-01-07T07:21:20.263Z,99.90
2023-01-07T07:23:46.987Z,99.90
2023-01-07T07:26:14.112Z,99.90
2023-01-07T07:28:42.764Z,99.90
2023-01-07T07:31:09.890Z,99.90
2023-01-07T07:33:36.738Z,99.90
2023-01-07T07:36:04.674Z,99.90
2023-01-07T07:38:31.357Z,99.90
2023-01-07T07:40:58.056Z,99.90
2023-01-07T07:43:24.668Z,99.90
2023-01-07T07:45:51.305Z,99.90
2023-01-07T07:48:17.942Z,99.90
2023-01-07T07:50:44.759Z,99.90
2023-01-07T07:53:11.659Z,99.90
2023-01-07T07:55:39.448Z,99.90
2023-01-07T07:58:06.670Z,99.90
2023-01-07T08:00:33.432Z,99.90
2023-01-07T08:03:00.772Z,99.90
2023-01-07T08:05:28.401Z,99.90
2023-01-07T08:07:56.131Z,99.90
2023-01-07T08:10:23.818Z,99.90
2023-01-07T08:12:50.715Z,99.90
2023-01-07T08:15:17.952Z,99.90
2023-01-07T08:17:44.767Z,99.90
2023-01-07T08:20:12.251Z,99.90
2023-01-07T08:22:39.027Z,99.90
2023-01-07T08:25:06.195Z,99.90
2023-01-07T08:27:32.842Z,99.90
2023-01-07T08:29:59.429Z,99.90
2023-01-07T08:32:26.101Z,99.90
2023-01-07T08:34:52.901Z,99.90
2023-01-07T08:37:19.559Z,99.90
2023-01-07T08:39:46.176Z,99.90
2023-01-07T08:42:12.838Z,99.90
2023-01-07T08:44:39.459Z,99.90
2023-01-07T08:47:06.052Z,99.90
2023-01-07T08:49:32.695Z,99.90
2023-01-07T08:51:59.281Z,99.90
2023-01-07T08:54:25.915Z,99.90
2023-01-07T08:56:52.578Z,99.90
2023-01-07T08:59:19.250Z,99.90
2023-01-07T09:01:46.057Z,99.90
2023-01-07T09:04:12.854Z,99.90
2023-01-07T09:06:39.445Z,99.90
2023-01-07T09:09:06.306Z,99.90
2023-01-07T09:11:32.943Z,99.90
2023-01-07T09:13:59.594Z,99.90
2023-01-07T09:16:26.285Z,99.90
2023-01-07T09:18:53.181Z,99.90
2023-01-07T09:21:19.878Z,99.90
2023-01-07T09:23:46.480Z,99.90
2023-01-07T09:26:13.173Z,99.90
2023-01-07T09:28:39.816Z,99.90
2023-01-07T09:31:07.099Z,99.90
2023-01-07T09:33:33.769Z,99.90
2023-01-07T09:36:00.534Z,99.90
2023-01-07T09:38:27.516Z,99.90
2023-01-07T09:40:55.273Z,99.90
2023-01-07T09:43:59.949Z,99.90
2023-01-07T09:46:17.384Z,99.90
2023-01-07T09:48:47.358Z,99.90
2023-01-07T09:51:38.497Z,99.90
2023-01-07T09:54:13.343Z,99.90
2023-01-07T09:56:40.555Z,99.90
2023-01-07T09:59:10.316Z,99.90
2023-01-07T10:02:00.046Z,99.90
2023-01-07T10:04:58.967Z,99.90
2023-01-07T10:07:31.764Z,99.90
2023-01-07T10:10:16.240Z,99.90
2023-01-07T10:13:16.210Z,99.90
2023-01-07T10:16:13.135Z,99.90
2023-01-07T10:19:01.488Z,99.90
2023-01-07T10:21:37.600Z,99.90
2023-01-07T10:24:13.501Z,99.90
2023-01-07T10:26:45.035Z,99.90
2023-01-07T10:29:17.350Z,99.90
2023-01-07T10:31:45.568Z,99.90
2023-01-07T10:34:22.327Z,99.90
2023-01-07T10:36:57.645Z,99.90
2023-01-07T10:39:24.326Z,99.90
2023-01-07T10:42:21.081Z,99.90
2023-01-07T10:45:06.628Z,99.90
2023-01-07T10:47:48.050Z,99.90
2023-01-07T10:50:35.734Z,99.90
2023-01-07T10:53:08.057Z,99.90
2023-01-07T10:55:44.245Z,99.90
2023-01-07T10:58:11.812Z,99.90
2023-01-07T11:00:41.968Z,99.90
2023-01-07T11:03:29.249Z,99.90
2023-01-07T11:05:59.782Z,99.90
2023-01-07T11:08:30.197Z,99.90
2023-01-07T11:10:58.840Z,99.90
2023-01-07T11:13:30.234Z,99.90
2023-01-07T11:16:07.647Z,99.90
2023-01-07T11:18:52.445Z,99.90
2023-01-07T11:21:46.652Z,99.90
2023-01-07T11:24:19.352Z,99.90
2023-01-07T11:26:46.897Z,99.90
2023-01-07T11:29:29.649Z,99.90
2023-01-07T11:31:59.058Z,99.90
2023-01-07T11:34:31.549Z,99.90
2023-01-07T11:36:58.368Z,99.90
2023-01-07T11:39:27.951Z,99.90
2023-01-07T11:41:58.525Z,98.60
2023-01-07T11:44:26.031Z,95.20
2023-01-07T11:46:53.640Z,95.00
2023-01-07T11:49:29.608Z,98.40
2023-01-07T11:51:56.912Z,99.90
2023-01-07T11:54:29.229Z,99.90
2023-01-07T11:57:20.499Z,99.90
2023-01-07T11:59:47.131Z,99.60
2023-01-07T12:02:27.654Z,98.70
2023-01-07T12:05:26.131Z,97.10
2023-01-07T12:07:53.925Z,95.40
2023-01-07T12:10:32.916Z,93.40
2023-01-07T12:13:01.882Z,95.10
2023-01-07T12:15:31.871Z,97.10
2023-01-07T12:18:07.591Z,98.30
2023-01-07T12:20:55.818Z,99.80
2023-01-07T12:24:00.507Z,99.90
2023-01-07T12:26:48.562Z,99.90
2023-01-07T12:29:48.159Z,99.90
2023-01-07T12:32:33.458Z,99.90
2023-01-07T12:35:15.016Z,99.90
2023-01-07T12:37:49.736Z,99.90
2023-01-07T12:40:38.834Z,99.90
2023-01-07T12:43:15.646Z,99.90
2023-01-07T12:45:57.557Z,99.90
2023-01-07T12:48:47.267Z,99.90
2023-01-07T12:51:23.437Z,99.90
2023-01-07T12:53:58.471Z,99.90
2023-01-07T12:56:46.353Z,99.90
2023-01-07T12:59:47.198Z,99.90
2023-01-07T13:02:33.517Z,99.90
2023-01-07T13:05:07.911Z,99.90
2023-01-07T13:08:10.688Z,99.90
2023-01-07T13:10:42.974Z,99.90
2023-01-07T13:13:22.488Z,99.90
2023-01-07T13:15:49.834Z,99.90
2023-01-07T13:18:19.407Z,99.90
2023-01-07T13:20:55.349Z,99.90
2023-01-07T13:23:31.161Z,99.90
2023-01-07T13:26:36.774Z,99.90
2023-01-07T13:29:15.440Z,99.90
2023-01-07T13:32:02.686Z,99.90
2023-01-07T13:34:50.471Z,99.90
2023-01-07T13:37:52.079Z,99.90
2023-01-07T13:40:46.412Z,99.90
2023-01-07T13:43:32.215Z,99.90
2023-01-07T13:46:28.743Z,99.90
2023-01-07T13:48:55.507Z,99.90
2023-01-07T13:51:37.879Z,99.90
2023-01-07T13:54:04.643Z,99.90
2023-01-07T13:56:40.646Z,99.90
2023-01-07T13:59:30.598Z,99.90
2023-01-07T14:02:14.679Z,99.90
2023-01-07T14:05:03.356Z,99.90
2023-01-07T14:07:31.012Z,99.90
2023-01-07T14:09:58.199Z,99.90
2023-01-07T14:12:52.942Z,99.90
2023-01-07T14:15:38.102Z,99.90
2023-01-07T14:18:12.993Z,99.90
2023-01-07T14:20:47.810Z,99.90
2023-01-07T14:23:27.913Z,99.90
2023-01-07T14:26:00.599Z,99.90
2023-01-07T14:28:45.691Z,99.90
2023-01-07T14:31:27.578Z,99.90
2023-01-07T14:34:07.200Z,99.90
2023-01-07T14:37:08.893Z,99.90
2023-01-07T14:39:39.867Z,99.90
2023-01-07T14:42:18.595Z,99.90
2023-01-07T14:44:51.800Z,99.90
2023-01-07T14:47:43.477Z,99.90
2023-01-07T14:50:35.884Z,99.90
2023-01-07T14:53:21.269Z,99.90
2023-01-07T14:56:12.622Z,99.90
2023-01-07T14:59:04.799Z,99.90
2023-01-07T15:02:00.632Z,99.90
2023-01-07T15:04:51.742Z,99.90
2023-01-07T15:07:24.971Z,99.90
2023-01-07T15:10:14.996Z,99.90
2023-01-07T15:13:01.976Z,99.90
2023-01-07T15:15:50.543Z,99.90
2023-01-07T15:18:17.590Z,99.90
2023-01-07T15:21:06.881Z,99.90
2023-01-07T15:23:54.505Z,99.90
2023-01-07T15:26:30.615Z,99.90
2023-01-07T15:29:09.050Z,99.90
2023-01-07T15:32:03.068Z,99.90
2023-01-07T15:34:31.905Z,99.90
2023-01-07T15:37:02.722Z,99.90
2023-01-07T15:39:39.706Z,99.90
2023-01-07T15:42:13.410Z,99.90
2023-01-07T15:44:41.452Z,99.90
2023-01-07T15:47:26.724Z,99.90
2023-01-07T15:49:53.399Z,99.90
2023-01-07T15:52:24.965Z,99.90
2023-01-07T15:54:51.564Z,99.90
2023-01-07T15:57:29.078Z,99.90
2023-01-07T15:59:56.533Z,99.90
2023-01-07T16:02:31.020Z,99.90
2023-01-07T16:05:00.834Z,99.90
2023-01-07T16:07:28.684Z,99.90
2023-01-07T16:09:57.151Z,99.90
2023-01-07T16:12:32.936Z,99.90
2023-01-07T16:14:59.890Z,99.90
2023-01-07T16:17:27.301Z,99.90
2023-01-07T16:20:24.003Z,99.90
2023-01-07T16:22:51.965Z,99.90
2023-01-07T16:25:30.149Z,99.90
2023-01-07T16:27:57.102Z,99.90
2023-01-07T16:30:24.300Z,99.90
2023-01-07T16:32:54.552Z,99.90
2023-01-07T16:35:29.351Z,99.90
2023-01-07T16:37:56.081Z,99.90
2023-01-07T16:40:35.384Z,99.90
2023-01-07T16:43:03.147Z,99.90
2023-01-07T16:45:34.840Z,99.90
2023-01-07T16:48:20.140Z,99.90
2023-01-07T16:50:48.482Z,99.90
2023-01-07T16:53:26.005Z,99.90
2023-01-07T16:56:12.825Z,99.90
2023-01-07T16:58:42.719Z,99.90
2023-01-07T17:01:10.860Z,99.90
2023-01-07T17:03:55.551Z,99.90
2023-01-07T17:06:29.464Z,99.90
2023-01-07T17:08:57.198Z,99.90
2023-01-07T17:11:33.827Z,99.90
2023-01-07T17:14:00.502Z,99.90
2023-01-07T17:16:34.697Z,99.90
2023-01-07T17:19:25.339Z,99.90
2023-01-07T17:21:53.256Z,99.90
2023-01-07T17:24:42.902Z,99.90
2023-01-07T17:27:19.556Z,99.90
2023-01-07T17:29:46.255Z,99.90
2023-01-07T17:32:13.821Z,99.90
2023-01-07T17:34:40.424Z,99.90
2023-01-07T17:37:14.997Z,99.90
2023-01-07T17:39:43.349Z,99.90
2023-01-07T17:42:41.222Z,99.90
2023-01-07T17:45:08.579Z,99.90
2023-01-07T17:47:35.247Z,99.90
2023-01-07T17:50:01.855Z,99.90
2023-01-07T17:52:28.945Z,99.90
2023-01-07T17:54:55.635Z,99.90
2023-01-07T17:57:22.624Z,99.90
2023-01-07T17:59:49.813Z,99.90
2023-01-07T18:02:18.836Z,99.90
2023-01-07T18:04:45.611Z,99.90
2023-01-07T18:07:15.968Z,99.90
2023-01-07T18:09:42.967Z,99.90
2023-01-07T18:12:31.195Z,99.90
2023-01-07T18:14:59.168Z,99.90
2023-01-07T18:17:26.311Z,99.90
2023-01-07T18:19:53.973Z,99.90
2023-01-07T18:22:21.248Z,99.90
2023-01-07T18:24:48.885Z,99.90
2023-01-07T18:27:17.044Z,99.90
2023-01-07T18:29:43.990Z,99.90
2023-01-07T18:32:10.747Z,99.90
2023-01-07T18:34:37.454Z,99.90
2023-01-07T18:37:04.253Z,99.90
2023-01-07T18:39:30.918Z,99.90
2023-01-07T18:41:57.625Z,99.90
2023-01-07T18:44:24.832Z,99.90
2023-01-07T18:46:51.623Z,99.90
2023-01-07T18:49:18.357Z,99.90
2023-01-07T18:51:48.380Z,99.90
2023-01-07T18:54:16.166Z,99.90
2023-01-07T18:56:45.657Z,99.90
2023-01-07T18:59:13.433Z,99.90
2023-01-07T19:01:40.175Z,99.90
2023-01-07T19:04:07.087Z,99.90
2023-01-07T19:06:33.977Z,99.90
2023-01-07T19:09:00.711Z,99.90
2023-01-07T19:11:27.345Z,99.90
2023-01-07T19:13:54.083Z,99.90
2023-01-07T19:16:20.820Z,99.90
2023-01-07T19:18:48.454Z,99.90
2023-01-07T19:21:15.179Z,99.90
2023-01-07T19:23:41.851Z,99.90
2023-01-07T19:26:10.845Z,99.90
2023-01-07T19:28:37.465Z,99.90
2023-01-07T19:31:06.683Z,99.90
2023-01-07T19:33:33.885Z,99.90
2023-01-07T19:36:11.526Z,99.90
2023-01-07T19:38:44.783Z,99.90
2023-01-07T19:41:13.694Z,99.90
2023-01-07T19:43:40.600Z,99.90
2023-01-07T19:46:09.642Z,99.90
2023-01-07T19:48:36.485Z,99.90
2023-01-07T19:51:05.348Z,99.90
2023-01-07T19:53:33.227Z,99.90
2023-01-07T19:56:01.426Z,99.90
2023-01-07T19:58:29.457Z,99.90
2023-01-07T20:01:04.311Z,99.90
2023-01-07T20:03:32.583Z,99.90
2023-01-07T20:06:07.040Z,99.90
2023-01-07T20:08:34.248Z,99.90
2023-01-07T20:11:01.059Z,99.90
2023-01-07T20:13:29.290Z,99.90
2023-01-07T20:15:55.991Z,99.90
2023-01-07T20:18:22.933Z,99.90
2023-01-07T20:20:57.759Z,99.90
2023-01-07T20:23:25.238Z,99.90
2023-01-07T20:25:52.001Z,99.90
2023-01-07T20:28:19.480Z,99.90
2023-01-07T20:30:46.229Z,99.90
2023-01-07T20:33:12.969Z,99.90
2023-01-07T20:35:39.770Z,99.90
2023-01-07T20:38:09.317Z,99.90
2023-01-07T20:40:40.130Z,99.90
2023-01-07T20:43:07.595Z,99.90
2023-01-07T20:45:38.118Z,99.90
2023-01-07T20:48:05.242Z,99.90
2023-01-07T20:50:35.541Z,99.90
2023-01-07T20:53:02.230Z,99.90
2023-01-07T20:55:28.850Z,99.90
2023-01-07T20:57:55.470Z,99.90
2023-01-07T21:00:22.100Z,99.90
2023-01-07T21:02:48.832Z,99.90
2023-01-07T21:05:20.074Z,99.90
2023-01-07T21:07:49.979Z,99.90
2023-01-07T21:10:18.857Z,99.90
2023-01-07T21:12:46.256Z,99.90
2023-01-07T21:15:16.166Z,99.90
2023-01-07T21:17:42.945Z,99.90
2023-01-07T21:20:13.157Z,99.90
2023-01-07T21:22:39.910Z,99.90
2023-01-07T21:25:10.171Z,99.90
2023-01-07T21:27:38.104Z,99.90
2023-01-07T21:30:06.581Z,99.90
2023-01-07T21:32:34.692Z,99.90
2023-01-07T21:35:01.739Z,99.90
2023-01-07T21:37:29.310Z,99.90
2023-01-07T21:39:56.071Z,99.90
2023-01-07T21:42:22.728Z,99.90
2023-01-07T21:44:49.403Z,99.90
2023-01-07T21:47:16.343Z,99.90
2023-01-07T21:49:43.908Z,99.90
2023-01-07T21:52:10.643Z,99.90
2023-01-07T21:54:37.336Z,99.90
2023-01-07T21:57:04.138Z,99.90
2023-01-07T21:59:30.842Z,99.90
2023-01-07T22:01:57.673Z,99.90
2023-01-07T22:04:24.429Z,99.90
2023-01-07T22:06:51.228Z,99.90
2023-01-07T22:09:17.869Z,99.90
2023-01-07T22:11:44.651Z,99.90
2023-01-07T22:14:15.184Z,99.90
2023-01-07T22:16:42.716Z,99.90
2023-01-07T22:19:13.169Z,99.90
2023-01-07T22:21:39.830Z,99.90
2023-01-07T22:24:07.436Z,99.90
2023-01-07T22:26:34.131Z,99.90
2023-01-07T22:29:03.348Z,99.90
2023-01-07T22:31:36.556Z,99.90
2023-01-07T22:34:07.586Z,99.90
2023-01-07T22:36:49.984Z,99.90
2023-01-07T22:39:28.912Z,99.90
2023-01-07T22:41:59.268Z,99.90
2023-01-07T22:44:33.121Z,99.90
2023-01-07T22:47:00.134Z,99.90
2023-01-07T22:49:29.444Z,99.90
2023-01-07T22:51:56.301Z,99.90
2023-01-07T22:54:24.058Z,99.90
2023-01-07T22:56:51.052Z,99.90
2023-01-07T22:59:17.679Z,99.90
2023-01-07T23:01:44.624Z,99.90
2023-01-07T23:04:11.370Z,99.90
2023-01-07T23:06:38.097Z,99.90
2023-01-07T23:09:05.074Z,99.90
2023-01-07T23:11:47.522Z,99.90
2023-01-07T23:14:18.476Z,99.90
2023-01-07T23:16:45.224Z,99.90
2023-01-07T23:19:12.739Z,99.90
2023-01-07T23:21:41.288Z,99.90
2023-01-07T23:24:08.181Z,99.90
2023-01-07T23:26:35.220Z,99.90
2023-01-07T23:29:01.818Z,99.90
2023-01-07T23:31:28.699Z,99.90
2023-01-07T23:33:55.551Z,99.90
2023-01-07T23:36:22.174Z,99.90
2023-01-07T23:38:48.986Z,99.90
2023-01-07T23:41:16.003Z,99.90
2023-01-07T23:43:42.607Z,99.90
2023-01-07T23:46:09.474Z,99.90
2023-01-07T23:48:37.577Z,99.90
2023-01-07T23:51:26.162Z,99.90
2023-01-07T23:53:52.831Z,99.90
2023-01-07T23:56:20.744Z,99.90
2023-01-07T23:58:48.335Z,99.90
